KEWN

Coastal Carolina Regional Airport

New Bern, North Carolina, USA
METAR KEWN 181254Z 03004KT 10SM CLR 04/02 A3012 RMK AO2 SLP198 T00390017
Observed Flight Rules
Dec-18 @ 12:54 UTC (13 minutes ago) Visual Flight Rules
Wind Visibility Clouds
30° at 4 knots 10 miles
  • Clear skies
Temperatures Readings
Current 4°C / 39°F
Dewpoint 2°C / 36°F
Humidity 87%
Altimeter 30.12" Hg
Pressure 1019.8 hPa
Elevation 3
METAR KEWN 181254Z 03004KT 10SM CLR 04/02 A3012 RMK AO2 SLP198 T00390017
Observed Flight Rules
Dec-18 @ 12:54 UTC
(13 minutes ago)
VFR
Wind Visibility
30° at 4 knots 10 miles
Clouds
  • Clear skies
Temperature Dewpoint
4°C / 39°F 2°C / 36°F
Humidity Altimeter Pressure
87% 30.12" Hg 1019.8 hPa